Time;durP1;ratioP1;P1;durP2;ratioP2;P2;SDS_P1;SDS_P2;PMS_P1;PMS_P2;Temp;Humidity;BMP_temperature;BMP_pressure;BME280_temperature;BME280_humidity;BME280_pressure;Samples;Min_cycle;Max_cycle;Signal;HPM_P1;HPM_P2
2023/01/08 00:01:06;;;;;;;11.33;7.80;;;;;;;-0.38;100.00;95993.03;4955804;28;105274;-63
2023/01/08 00:03:34;;;;;;;8.80;6.70;;;;;;;-0.42;100.00;95991.78;4952961;28;104425;-63
2023/01/08 00:06:02;;;;;;;9.90;7.27;;;;;;;-0.42;100.00;95983.94;4952573;28;105734;-62
2023/01/08 00:08:29;;;;;;;9.77;7.37;;;;;;;-0.33;100.00;95987.22;4952956;28;101961;-62
2023/01/08 00:10:56;;;;;;;9.10;7.00;;;;;;;-0.26;100.00;95989.66;4952998;28;105167;-63
2023/01/08 00:13:25;;;;;;;11.83;7.10;;;;;;;-0.22;100.00;95990.06;4970156;28;103091;-63
2023/01/08 00:15:52;;;;;;;8.90;6.27;;;;;;;-0.45;100.00;95980.91;4953702;28;101946;-62
2023/01/08 00:18:19;;;;;;;8.63;7.07;;;;;;;-0.33;100.00;95977.53;4969821;28;105115;-62
2023/01/08 00:20:47;;;;;;;8.77;6.60;;;;;;;-0.33;100.00;95974.94;4970204;28;102701;-62
2023/01/08 00:23:14;;;;;;;9.23;6.23;;;;;;;-0.38;100.00;95968.69;4955943;28;101845;-62
2023/01/08 00:25:40;;;;;;;7.93;6.37;;;;;;;-0.64;100.00;95968.53;4952359;28;105922;-62
2023/01/08 00:28:08;;;;;;;7.57;6.57;;;;;;;-0.46;100.00;95961.81;4968897;28;101982;-62
2023/01/08 00:30:37;;;;;;;8.10;6.40;;;;;;;-0.38;100.00;95964.28;4952789;28;105233;-62
2023/01/08 00:33:04;;;;;;;8.70;6.07;;;;;;;-0.24;100.00;95965.94;4951488;28;105265;-62
2023/01/08 00:35:31;;;;;;;9.60;6.93;;;;;;;-0.13;100.00;95973.22;4969061;28;101892;-63
2023/01/08 00:37:58;;;;;;;7.90;6.27;;;;;;;-0.06;100.00;95963.59;4970455;28;102542;-62
2023/01/08 00:40:25;;;;;;;8.00;6.30;;;;;;;-0.22;100.00;95969.97;4971886;28;103142;-62
2023/01/08 00:42:52;;;;;;;8.23;6.17;;;;;;;-0.24;100.00;95957.31;4959229;28;102292;-62
2023/01/08 00:45:18;;;;;;;6.77;5.63;;;;;;;-0.13;100.00;95952.31;4955378;28;105706;-62
2023/01/08 00:47:47;;;;;;;6.87;5.73;;;;;;;-0.37;100.00;95945.78;4972527;28;102126;-62
2023/01/08 00:50:14;;;;;;;7.03;5.60;;;;;;;-0.52;100.00;95940.88;4956304;28;105086;-62
2023/01/08 00:52:41;;;;;;;7.03;5.60;;;;;;;-0.54;100.00;95940.28;4971407;28;105245;-62
2023/01/08 00:55:08;;;;;;;8.37;6.50;;;;;;;-0.47;100.00;95939.31;4955629;28;101932;-62
2023/01/08 00:57:36;;;;;;;7.33;5.80;;;;;;;-0.44;100.00;95941.53;4955806;28;104943;-62
2023/01/08 01:00:04;;;;;;;20.87;12.53;;;;;;;-0.44;100.00;95933.69;4955413;28;105304;-62
2023/01/08 01:02:31;;;;;;;10.73;7.27;;;;;;;-0.62;100.00;95930.00;4954687;28;101927;-62
2023/01/08 01:04:59;;;;;;;9.40;6.50;;;;;;;-0.66;100.00;95937.38;4958387;28;105481;-62
2023/01/08 01:07:26;;;;;;;7.83;6.23;;;;;;;-0.53;100.00;95937.47;4955718;28;101908;-62
2023/01/08 01:09:54;;;;;;;10.50;6.90;;;;;;;-0.53;100.00;95927.03;4956284;28;105290;-62
2023/01/08 01:12:20;;;;;;;9.27;6.80;;;;;;;-0.62;100.00;95919.56;4973355;28;102640;-63
2023/01/08 01:14:48;;;;;;;9.03;6.80;;;;;;;-0.49;100.00;95919.63;4956804;28;101960;-63
2023/01/08 01:17:14;;;;;;;10.07;6.77;;;;;;;-0.46;100.00;95927.88;4956046;28;105217;-62
2023/01/08 01:19:41;;;;;;;8.77;6.57;;;;;;;-0.62;100.00;95925.56;4955165;28;105074;-62
2023/01/08 01:22:10;;;;;;;7.57;6.03;;;;;;;-0.70;100.00;95927.53;4955596;28;101889;-62
2023/01/08 01:24:37;;;;;;;8.77;6.70;;;;;;;-0.63;100.00;95936.19;4973286;28;102448;-62
2023/01/08 01:27:04;;;;;;;7.87;6.70;;;;;;;-0.54;100.00;95935.88;4974475;28;105191;-62
2023/01/08 01:29:30;;;;;;;9.07;6.90;;;;;;;-0.65;100.00;95920.75;4955683;28;103553;-62
2023/01/08 01:31:57;;;;;;;9.53;7.23;;;;;;;-0.64;100.00;95911.91;4954898;28;103901;-62
2023/01/08 01:34:24;;;;;;;9.10;7.50;;;;;;;-0.76;100.00;95929.13;4971556;28;101878;-62
2023/01/08 01:36:51;;;;;;;8.87;6.40;;;;;;;-0.87;100.00;95931.44;4955618;28;104788;-63
2023/01/08 01:39:20;;;;;;;9.27;6.83;;;;;;;-0.90;100.00;95926.59;4954661;28;105710;-62
2023/01/08 01:41:47;;;;;;;8.80;6.97;;;;;;;-0.90;100.00;95931.81;4955606;28;101967;-62
2023/01/08 01:44:34;;;;;;;8.83;6.93;;;;;;;-0.73;100.00;95928.72;4955519;28;104808;-62
2023/01/08 01:47:05;;;;;;;10.03;6.70;;;;;;;-0.71;100.00;95928.53;4954841;28;105758;-62
2023/01/08 01:49:33;;;;;;;8.77;6.77;;;;;;;-0.60;100.00;95926.19;4957806;28;101996;-62
2023/01/08 01:52:05;;;;;;;7.60;6.60;;;;;;;-0.59;100.00;95922.59;4953524;28;105401;-62
2023/01/08 01:54:35;;;;;;;9.30;6.60;;;;;;;-0.70;100.00;95917.91;4955020;28;102364;-62
2023/01/08 01:57:03;;;;;;;9.17;6.67;;;;;;;-0.63;100.00;95917.94;4955225;28;104765;-62
2023/01/08 01:59:30;;;;;;;7.83;6.63;;;;;;;-0.74;100.00;95915.84;4954333;28;105315;-62
2023/01/08 02:01:58;;;;;;;6.97;6.27;;;;;;;-0.66;100.00;95916.50;4955161;28;101932;-62
2023/01/08 02:04:25;;;;;;;7.97;6.70;;;;;;;-0.66;100.00;95919.13;4972841;28;102514;-62
2023/01/08 02:07:00;;;;;;;9.77;6.60;;;;;;;-0.75;100.00;95919.47;4954535;28;105047;-62
2023/01/08 02:09:40;;;;;;;9.10;6.77;;;;;;;-0.70;100.00;95924.94;4954858;28;101800;-63
2023/01/08 02:12:17;;;;;;;8.17;6.37;;;;;;;-0.90;100.00;95922.19;4957891;28;105167;-63
2023/01/08 02:14:56;;;;;;;7.47;6.10;;;;;;;-0.91;100.00;95919.78;4955294;28;101869;-62
2023/01/08 02:17:29;;;;;;;8.70;6.90;;;;;;;-0.81;100.00;95915.03;4954458;28;104847;-62
2023/01/08 02:20:02;;;;;;;7.33;5.90;;;;;;;-0.78;100.00;95910.22;4954876;28;105459;-62
2023/01/08 02:22:43;;;;;;;7.60;6.63;;;;;;;-0.93;100.00;95903.50;4955462;28;101820;-62
2023/01/08 02:25:20;;;;;;;7.70;6.10;;;;;;;-0.88;100.00;95894.09;4954751;28;104970;-62
2023/01/08 02:27:51;;;;;;;7.10;5.97;;;;;;;-0.88;100.00;95888.88;4954591;28;104408;-62
2023/01/08 02:30:19;;;;;;;7.57;5.97;;;;;;;-1.06;100.00;95882.53;4954918;28;101822;-62
2023/01/08 02:32:46;;;;;;;7.67;6.23;;;;;;;-1.05;100.00;95877.13;4954520;28;104980;-62
2023/01/08 02:35:13;;;;;;;8.63;6.43;;;;;;;-0.95;100.00;95867.16;4975222;28;102327;-62
2023/01/08 02:37:40;;;;;;;9.67;6.67;;;;;;;-0.98;100.00;95875.41;4971034;28;104790;-63
2023/01/08 02:40:15;;;;;;;7.90;6.67;;;;;;;-1.03;100.00;95880.38;4953796;28;104374;-62
2023/01/08 02:42:47;;;;;;;8.47;6.23;;;;;;;-1.28;100.00;95887.00;4954777;28;101853;-62
2023/01/08 02:45:26;;;;;;;9.17;7.00;;;;;;;-1.37;100.00;95882.91;4954644;28;105689;-62
2023/01/08 02:48:01;;;;;;;7.30;6.50;;;;;;;-1.24;100.00;95872.59;4971871;28;102282;-62
2023/01/08 02:50:33;;;;;;;7.47;6.70;;;;;;;-1.13;100.00;95858.22;4955082;28;102006;-62
2023/01/08 02:53:05;;;;;;;9.27;6.90;;;;;;;-1.14;100.00;95857.44;4970925;28;103620;-62
2023/01/08 02:55:35;;;;;;;9.03;6.73;;;;;;;-1.11;100.00;95849.19;4958288;28;105082;-62
2023/01/08 02:58:03;;;;;;;10.10;7.17;;;;;;;-1.07;100.00;95837.41;4955863;28;105026;-62
2023/01/08 03:00:33;;;;;;;10.37;7.03;;;;;;;-1.07;100.00;95840.00;4973683;28;102046;-62
2023/01/08 03:03:07;;;;;;;8.30;6.60;;;;;;;-1.34;100.00;95840.00;4955694;28;101690;-62
2023/01/08 03:05:35;;;;;;;8.27;6.50;;;;;;;-1.50;100.00;95830.69;4954894;28;103611;-62
2023/01/08 03:08:02;;;;;;;7.97;6.70;;;;;;;-1.33;100.00;95820.75;4969665;28;103770;-62
2023/01/08 03:10:30;;;;;;;8.43;6.73;;;;;;;-1.27;100.00;95820.81;4954305;28;101927;-62
2023/01/08 03:13:02;;;;;;;7.90;6.53;;;;;;;-1.22;100.00;95822.88;4953742;28;105226;-62
2023/01/08 03:15:36;;;;;;;9.30;6.30;;;;;;;-1.31;100.00;95830.00;4953159;28;105157;-62
2023/01/08 03:18:09;;;;;;;9.30;6.67;;;;;;;-1.40;100.00;95835.56;4957313;28;101983;-62
2023/01/08 03:20:38;;;;;;;11.97;7.10;;;;;;;-1.39;100.00;95824.94;4953297;28;106245;-62
2023/01/08 03:23:10;;;;;;;8.03;6.60;;;;;;;-1.38;100.00;95829.16;4953288;28;101995;-62
2023/01/08 03:25:40;;;;;;;7.93;6.20;;;;;;;-1.28;100.00;95834.84;4954952;28;103632;-62
2023/01/08 03:28:13;;;;;;;7.47;6.10;;;;;;;-1.28;100.00;95834.84;4954772;28;105267;-62
2023/01/08 03:30:44;;;;;;;7.03;6.33;;;;;;;-1.24;100.00;95830.06;4955125;28;101997;-62
2023/01/08 03:33:13;;;;;;;9.13;7.00;;;;;;;-1.26;100.00;95830.25;4953047;28;104179;-62
2023/01/08 03:35:43;;;;;;;7.97;6.43;;;;;;;-1.28;100.00;95834.03;4952974;28;104991;-62
2023/01/08 03:38:15;;;;;;;8.83;6.47;;;;;;;-1.21;100.00;95840.91;4953621;28;101883;-63
2023/01/08 03:40:46;;;;;;;9.30;7.00;;;;;;;-1.06;100.00;95854.66;4972660;28;105356;-62
2023/01/08 03:43:13;;;;;;;8.27;6.57;;;;;;;-1.09;100.00;95854.22;4953780;28;101807;-62
2023/01/08 03:45:48;;;;;;;8.17;6.90;;;;;;;-1.11;100.00;95854.41;4954325;28;104828;-62
2023/01/08 03:48:16;;;;;;;8.67;6.67;;;;;;;-1.26;100.00;95851.09;4953188;28;105307;-62
2023/01/08 03:50:43;;;;;;;9.27;7.07;;;;;;;-1.16;100.00;95848.97;4953336;28;101868;-62
2023/01/08 03:53:10;;;;;;;8.67;7.53;;;;;;;-1.16;100.00;95846.34;4952828;28;105545;-62
2023/01/08 03:55:37;;;;;;;9.17;7.10;;;;;;;-1.11;100.00;95841.38;4953084;28;104399;-62
2023/01/08 03:58:04;;;;;;;9.50;7.50;;;;;;;-1.09;100.00;95836.75;4953525;28;101850;-62
2023/01/08 04:00:31;;;;;;;8.20;7.27;;;;;;;-1.08;100.00;95833.19;4953012;28;105431;-62
2023/01/08 04:02:59;;;;;;;11.17;6.80;;;;;;;-1.11;100.00;95835.38;4973473;28;102576;-62
2023/01/08 04:05:26;;;;;;;9.60;6.70;;;;;;;-1.23;100.00;95831.66;4953442;28;105101;-62
2023/01/08 04:07:56;;;;;;;6.97;6.27;;;;;;;-1.12;100.00;95825.91;4970336;28;102738;-62
2023/01/08 04:10:23;;;;;;;7.73;6.40;;;;;;;-1.19;100.00;95814.63;4953029;28;101928;-62
2023/01/08 04:12:50;;;;;;;9.13;6.60;;;;;;;-1.20;100.00;95815.66;4953324;28;103591;-62
2023/01/08 04:15:17;;;;;;;8.20;6.60;;;;;;;-1.32;100.00;95828.41;4954306;28;104486;-62
2023/01/08 04:17:44;;;;;;;8.33;6.33;;;;;;;-1.62;100.00;95818.38;4956473;28;102015;-62
2023/01/08 04:20:12;;;;;;;9.50;6.23;;;;;;;-1.68;100.00;95821.72;4974457;28;102349;-62
2023/01/08 04:22:39;;;;;;;8.27;6.03;;;;;;;-1.63;100.00;95814.97;4955788;28;105417;-62
2023/01/08 04:25:07;;;;;;;9.93;6.60;;;;;;;-1.81;100.00;95811.22;4959859;28;101972;-62
2023/01/08 04:27:34;;;;;;;10.70;6.77;;;;;;;-1.74;100.00;95799.03;4956367;28;104976;-62
2023/01/08 04:30:00;;;;;;;8.50;6.47;;;;;;;-1.66;100.00;95794.47;4956584;28;101897;-62
2023/01/08 04:32:28;;;;;;;10.03;6.37;;;;;;;-1.61;100.00;95802.53;4955904;28;105199;-62
2023/01/08 04:34:55;;;;;;;9.37;6.20;;;;;;;-1.64;100.00;95796.91;4955915;28;105582;-62
2023/01/08 04:37:23;;;;;;;13.47;7.43;;;;;;;-1.84;100.00;95796.75;4956846;28;101746;-62
2023/01/08 04:39:50;;;;;;;12.47;7.63;;;;;;;-1.89;100.00;95798.31;4956492;28;105069;-62
2023/01/08 04:42:17;;;;;;;11.13;7.50;;;;;;;-1.75;100.00;95794.81;4972426;28;105289;-62
2023/01/08 04:44:44;;;;;;;10.63;7.80;;;;;;;-1.61;100.00;95796.50;4960017;28;101895;-62
2023/01/08 04:47:11;;;;;;;9.67;7.23;;;;;;;-1.57;100.00;95789.94;4956234;28;105242;-62
2023/01/08 04:49:38;;;;;;;11.20;7.70;;;;;;;-1.76;100.00;95794.00;4973120;28;101971;-62
2023/01/08 04:52:05;;;;;;;9.13;6.80;;;;;;;-1.87;100.00;95789.31;4956127;28;105611;-62
2023/01/08 04:54:34;;;;;;;7.93;6.40;;;;;;;-1.83;100.00;95780.13;4955758;28;105298;-62
2023/01/08 04:57:01;;;;;;;8.50;5.93;;;;;;;-1.76;100.00;95793.22;4956510;28;101902;-62
2023/01/08 04:59:27;;;;;;;7.60;6.30;;;;;;;-1.73;100.00;95785.00;4972756;28;104670;-62
2023/01/08 05:01:55;;;;;;;7.67;5.63;;;;;;;-1.65;100.00;95780.44;4956070;28;105706;-62
2023/01/08 05:04:22;;;;;;;11.63;6.17;;;;;;;-1.70;100.00;95769.00;4955998;28;102025;-62
2023/01/08 05:06:49;;;;;;;6.73;5.80;;;;;;;-1.74;100.00;95771.19;4959285;28;105100;-62
2023/01/08 05:09:16;;;;;;;7.67;6.40;;;;;;;-1.78;100.00;95777.75;4972715;28;101867;-62
2023/01/08 05:11:44;;;;;;;7.60;6.00;;;;;;;-1.81;100.00;95783.34;4956510;28;103692;-62
2023/01/08 05:14:11;;;;;;;6.33;5.73;;;;;;;-1.69;100.00;95784.41;4956069;28;105086;-62
2023/01/08 05:16:38;;;;;;;8.20;6.47;;;;;;;-1.74;100.00;95784.22;4974228;28;101818;-62
2023/01/08 05:19:05;;;;;;;7.27;6.43;;;;;;;-1.74;100.00;95781.59;4956638;28;103928;-62
2023/01/08 05:21:32;;;;;;;8.17;6.13;;;;;;;-1.72;100.00;95790.03;4956297;28;105058;-62
2023/01/08 05:24:01;;;;;;;7.37;6.50;;;;;;;-1.59;100.00;95790.13;4956501;28;101804;-62
2023/01/08 05:26:27;;;;;;;9.73;7.07;;;;;;;-1.51;100.00;95792.59;4956374;28;104495;-62
2023/01/08 05:28:56;;;;;;;7.30;5.90;;;;;;;-1.41;100.00;95800.06;4958827;28;104033;-62
2023/01/08 05:31:23;;;;;;;7.40;6.67;;;;;;;-1.41;100.00;95808.72;4956213;28;104723;-62
2023/01/08 05:33:50;;;;;;;7.20;6.00;;;;;;;-1.35;100.00;95801.91;4955889;28;104429;-62
2023/01/08 05:36:17;;;;;;;8.07;6.50;;;;;;;-1.33;100.00;95800.72;4956444;28;101947;-62
2023/01/08 05:38:46;;;;;;;7.70;6.77;;;;;;;-1.44;100.00;95788.22;4973053;28;101744;-62
2023/01/08 05:41:13;;;;;;;8.33;6.53;;;;;;;-1.46;100.00;95773.75;4972010;28;105350;-62
2023/01/08 05:43:40;;;;;;;7.00;6.30;;;;;;;-1.40;100.00;95750.34;4972623;28;101797;-62
2023/01/08 05:46:09;;;;;;;7.83;6.50;;;;;;;-1.37;100.00;95715.25;4973881;28;102447;-62
2023/01/08 05:48:36;;;;;;;7.77;6.50;;;;;;;-1.48;100.00;95700.94;4973665;28;102533;-62
2023/01/08 05:51:04;;;;;;;7.97;6.50;;;;;;;-1.51;100.00;95717.00;4959718;28;101893;-62
2023/01/08 05:53:32;;;;;;;8.87;6.97;;;;;;;-1.67;100.00;95719.91;4955603;28;105447;-62
2023/01/08 05:56:01;;;;;;;8.97;6.90;;;;;;;-1.77;100.00;95719.44;4956419;28;101803;-62
2023/01/08 05:58:28;;;;;;;12.40;8.33;;;;;;;-1.65;100.00;95709.28;4956450;28;105514;-62
2023/01/08 06:01:01;;;;;;;12.97;8.53;;;;;;;-1.75;100.00;95696.59;4954605;28;105573;-62
2023/01/08 06:03:29;;;;;;;9.00;6.57;;;;;;;-1.81;100.00;95702.56;4956026;28;101781;-62
2023/01/08 06:05:58;;;;;;;8.53;6.90;;;;;;;-1.90;100.00;95714.16;4956282;28;105657;-62
2023/01/08 06:08:25;;;;;;;9.60;6.80;;;;;;;-1.82;100.00;95708.78;4972500;28;102603;-62
2023/01/08 06:10:53;;;;;;;10.53;7.57;;;;;;;-1.74;100.00;95724.28;4956366;28;101857;-62
2023/01/08 06:13:20;;;;;;;7.77;6.40;;;;;;;-1.62;100.00;95741.00;4975058;28;105398;-62
2023/01/08 06:15:47;;;;;;;15.70;10.93;;;;;;;-1.70;100.00;95720.28;4956146;28;101903;-62
2023/01/08 06:18:14;;;;;;;9.33;6.67;;;;;;;-1.87;100.00;95713.75;4972305;28;102338;-62
2023/01/08 06:20:43;;;;;;;10.47;7.07;;;;;;;-1.91;100.00;95709.91;4955593;28;104415;-62
2023/01/08 06:23:09;;;;;;;8.73;7.53;;;;;;;-1.85;100.00;95716.16;4955511;28;102007;-62
2023/01/08 06:25:37;;;;;;;9.60;7.40;;;;;;;-1.76;100.00;95726.25;4955728;28;105169;-62
2023/01/08 06:28:04;;;;;;;9.73;7.70;;;;;;;-1.71;100.00;95726.47;4973168;28;103039;-62
2023/01/08 06:30:32;;;;;;;8.57;7.00;;;;;;;-1.60;100.00;95730.38;4956033;28;102010;-62
2023/01/08 06:32:59;;;;;;;9.67;7.27;;;;;;;-1.55;100.00;95728.78;4952430;28;105168;-62
2023/01/08 06:35:27;;;;;;;8.83;7.50;;;;;;;-1.56;100.00;95711.53;4955361;28;103883;-62
2023/01/08 06:37:56;;;;;;;9.03;8.13;;;;;;;-1.49;100.00;95701.94;4951235;28;104390;-63
2023/01/08 06:40:23;;;;;;;7.93;7.00;;;;;;;-1.41;100.00;95709.63;4950891;28;105128;-62
2023/01/08 06:42:50;;;;;;;7.70;6.47;;;;;;;-1.42;100.00;95712.41;4951378;28;101957;-62
2023/01/08 06:45:17;;;;;;;7.80;6.93;;;;;;;-1.36;100.00;95725.50;4951073;28;105060;-63
2023/01/08 06:47:44;;;;;;;8.43;6.83;;;;;;;-1.38;100.00;95726.69;4950126;28;105301;-62
2023/01/08 06:50:11;;;;;;;9.67;7.00;;;;;;;-1.37;100.00;95730.91;4950943;28;102044;-57
2023/01/08 06:52:38;;;;;;;8.37;7.00;;;;;;;-1.34;100.00;95733.09;4952443;28;104042;-62
2023/01/08 06:55:08;;;;;;;8.00;6.93;;;;;;;-1.24;100.00;95742.19;4953554;28;105395;-61
2023/01/08 06:57:38;;;;;;;9.70;7.80;;;;;;;-1.15;100.00;95735.81;4952775;28;105604;-64
2023/01/08 07:00:09;;;;;;;9.63;7.30;;;;;;;-1.08;100.00;95734.03;4951604;28;106295;-69
2023/01/08 07:02:37;;;;;;;8.10;7.30;;;;;;;-1.09;100.00;95740.25;4951252;28;102019;-67
2023/01/08 07:05:05;;;;;;;9.80;7.73;;;;;;;-1.03;100.00;95759.53;4942972;28;105699;-65
2023/01/08 07:07:32;;;;;;;9.13;7.70;;;;;;;-1.08;100.00;95741.88;4919636;28;105624;-65
2023/01/08 07:10:00;;;;;;;9.57;7.67;;;;;;;-0.98;100.00;95739.72;4911712;28;102151;-67
2023/01/08 07:12:29;;;;;;;8.40;7.20;;;;;;;-1.04;100.00;95752.72;4911683;28;104228;-63
2023/01/08 07:14:56;;;;;;;7.60;6.80;;;;;;;-1.35;100.00;95740.13;4919018;28;105364;-63
2023/01/08 07:17:23;;;;;;;7.33;6.53;;;;;;;-1.18;100.00;95738.81;4934094;28;101938;-64
2023/01/08 07:19:50;;;;;;;7.90;7.07;;;;;;;-1.06;100.00;95719.00;4930133;28;105101;-64
2023/01/08 07:22:16;;;;;;;9.17;7.53;;;;;;;-0.96;100.00;95714.22;4930500;28;101976;-64
2023/01/08 07:24:43;;;;;;;9.13;7.20;;;;;;;-0.94;100.00;95727.88;4929990;28;103936;-64
2023/01/08 07:27:10;;;;;;;12.87;9.20;;;;;;;-1.00;100.00;95728.66;4929795;28;104014;-64
2023/01/08 07:29:38;;;;;;;9.70;8.00;;;;;;;-1.12;100.00;95730.22;4930705;28;102289;-64
2023/01/08 07:32:05;;;;;;;9.17;7.97;;;;;;;-1.12;100.00;95742.44;4930296;28;105080;-64
2023/01/08 07:34:33;;;;;;;9.93;8.03;;;;;;;-1.07;100.00;95743.47;4949299;28;105103;-64
2023/01/08 07:37:00;;;;;;;8.60;7.53;;;;;;;-0.89;100.00;95746.34;4952920;28;103676;-64
2023/01/08 07:39:27;;;;;;;9.53;8.13;;;;;;;-0.79;100.00;95736.34;4965777;28;104887;-64
2023/01/08 07:41:54;;;;;;;8.40;7.20;;;;;;;-0.78;100.00;95737.97;4973098;28;101996;-64
2023/01/08 07:44:20;;;;;;;7.97;7.10;;;;;;;-0.65;100.00;95727.56;4960985;28;105498;-64
2023/01/08 07:46:49;;;;;;;9.37;7.83;;;;;;;-0.55;100.00;95729.78;4950612;28;104388;-64
2023/01/08 07:49:16;;;;;;;9.10;8.10;;;;;;;-0.38;100.00;95726.63;4951631;28;101783;-64
2023/01/08 07:51:43;;;;;;;10.73;7.43;;;;;;;-0.59;100.00;95732.00;4952635;28;105183;-64
2023/01/08 07:54:10;;;;;;;8.73;6.93;;;;;;;-0.57;100.00;95732.59;4951737;28;104408;-64
2023/01/08 07:56:37;;;;;;;9.23;7.17;;;;;;;-0.59;100.00;95736.41;4952441;28;102077;-64
2023/01/08 07:59:04;;;;;;;7.70;6.90;;;;;;;-0.62;100.00;95740.22;4950821;28;105008;-64
2023/01/08 08:01:30;;;;;;;7.03;6.33;;;;;;;-0.51;100.00;95729.19;4953861;28;105625;-64
2023/01/08 08:03:59;;;;;;;7.77;6.40;;;;;;;-0.33;100.00;95726.00;4968794;28;102924;-64
2023/01/08 08:06:26;;;;;;;7.43;6.23;;;;;;;-0.19;100.00;95733.66;4950266;28;105783;-64
2023/01/08 08:08:52;;;;;;;8.93;6.60;;;;;;;-0.06;100.00;95723.19;4968498;28;101807;-64
2023/01/08 08:11:19;;;;;;;9.57;6.73;;;;;;;0.06;100.00;95721.59;4968799;28;102216;-64
2023/01/08 08:13:46;;;;;;;9.13;6.50;;;;;;;0.08;100.00;95724.81;4950073;28;105176;-64
2023/01/08 08:16:13;;;;;;;9.03;6.70;;;;;;;-0.02;100.00;95720.00;4968380;28;101740;-64
2023/01/08 08:18:40;;;;;;;7.73;6.67;;;;;;;0.07;100.00;95724.00;4950511;28;105268;-64
2023/01/08 08:21:08;;;;;;;9.17;7.37;;;;;;;0.18;100.00;95720.78;4951215;28;105431;-64
2023/01/08 08:23:36;;;;;;;8.10;7.30;;;;;;;0.27;100.00;95734.44;4955777;28;101937;-64
2023/01/08 08:26:04;;;;;;;8.53;7.67;;;;;;;0.30;100.00;95739.28;4952045;28;105591;-64
2023/01/08 08:28:31;;;;;;;8.60;7.70;;;;;;;0.38;100.00;95736.44;4970402;28;102140;-64
2023/01/08 08:30:57;;;;;;;8.33;7.30;;;;;;;0.51;100.00;95725.97;4952666;28;105568;-64
2023/01/08 08:33:24;;;;;;;12.10;8.20;;;;;;;0.47;100.00;95736.03;4969635;28;101951;-64
2023/01/08 08:35:52;;;;;;;8.80;7.70;;;;;;;0.35;100.00;95736.88;4952194;28;101883;-65
2023/01/08 08:38:21;;;;;;;11.20;8.50;;;;;;;0.55;100.00;95753.34;4952495;28;105426;-64
2023/01/08 08:40:48;;;;;;;11.27;8.70;;;;;;;0.58;100.00;95747.69;4951891;28;104110;-64
2023/01/08 08:43:16;;;;;;;13.03;10.17;;;;;;;0.65;100.00;95756.31;4952299;28;101973;-64
2023/01/08 08:45:43;;;;;;;15.17;11.40;;;;;;;0.68;100.00;95761.16;4954176;28;105374;-64
2023/01/08 08:48:11;;;;;;;13.60;10.87;;;;;;;0.62;100.00;95754.13;4951358;28;102237;-64
2023/01/08 08:50:39;;;;;;;13.20;10.30;;;;;;;0.67;100.00;95762.16;4951534;28;105866;-64
2023/01/08 08:53:07;;;;;;;12.93;9.80;;;;;;;0.83;100.00;95759.09;4968410;28;102585;-64
2023/01/08 08:55:36;;;;;;;12.30;10.60;;;;;;;1.12;100.00;95755.97;4952121;28;101848;-64
2023/01/08 08:58:06;;;;;;;13.30;10.97;;;;;;;1.16;100.00;95752.72;4950685;28;104043;-64
2023/01/08 09:00:33;;;;;;;16.80;12.17;;;;;;;1.21;100.00;95746.91;4967897;28;103146;-64
2023/01/08 09:03:00;;;;;;;14.27;11.43;;;;;;;1.01;100.00;95749.59;4954153;28;101868;-64
2023/01/08 09:05:29;;;;;;;13.60;11.07;;;;;;;1.05;100.00;95760.44;4957103;28;105611;-64
2023/01/08 09:07:56;;;;;;;28.40;17.80;;;;;;;1.07;100.00;95769.69;4953605;28;101892;-64
2023/01/08 09:10:24;;;;;;;41.17;20.60;;;;;;;1.26;100.00;95768.03;4953343;28;105379;-64
2023/01/08 09:12:53;;;;;;;20.47;14.30;;;;;;;1.55;100.00;95767.47;4953591;28;105625;-64
2023/01/08 09:15:21;;;;;;;24.07;15.43;;;;;;;1.63;100.00;95769.84;4953785;28;102396;-64
2023/01/08 09:17:53;;;;;;;22.67;16.80;;;;;;;1.60;100.00;95780.75;4953652;28;105525;-64
2023/01/08 09:20:20;;;;;;;18.03;13.90;;;;;;;1.81;100.00;95785.69;4953482;28;105477;-64
2023/01/08 09:22:48;;;;;;;18.40;12.43;;;;;;;1.75;100.00;95778.66;4971295;28;101841;-64
2023/01/08 09:25:15;;;;;;;14.97;10.63;;;;;;;1.75;100.00;95786.53;4970085;28;105544;-64
2023/01/08 09:27:43;;;;;;;13.83;10.63;;;;;;;1.88;100.00;95787.25;4956951;28;105189;-64
2023/01/08 09:30:15;;;;;;;10.40;8.83;;;;;;;1.84;100.00;95777.38;4953803;28;105476;-64
2023/01/08 09:32:42;;;;;;;13.87;9.73;;;;;;;1.86;100.00;95764.88;4953665;28;105431;-64
2023/01/08 09:35:10;;;;;;;96.23;32.90;;;;;;;2.01;100.00;95757.50;4954602;28;101843;-64
2023/01/08 09:37:37;;;;;;;15.07;10.03;;;;;;;2.28;100.00;95757.09;4953865;28;106017;-64
2023/01/08 09:40:05;;;;;;;7.13;5.97;;;;;;;2.21;100.00;95764.22;4952337;28;105831;-64
2023/01/08 09:42:34;;;;;;;7.20;5.50;;;;;;;2.25;100.00;95759.34;4935834;28;101922;-64
2023/01/08 09:45:03;;;;;;;5.83;5.23;;;;;;;2.36;100.00;95764.69;4935681;28;105219;-64
2023/01/08 09:47:37;;;;;;;5.43;4.93;;;;;;;2.56;100.00;95773.19;4934574;28;105919;-64
2023/01/08 09:50:10;;;;;;;10.60;7.33;;;;;;;2.73;100.00;95757.72;4956055;28;102201;-64
2023/01/08 09:52:42;;;;;;;5.63;4.70;;;;;;;2.98;100.00;95756.63;4933830;28;105821;-64
2023/01/08 09:55:13;;;;;;;5.03;4.57;;;;;;;2.95;100.00;95749.19;4946498;28;101948;-64
2023/01/08 09:57:41;;;;;;;5.30;4.77;;;;;;;3.09;100.00;95749.84;4954375;28;104989;-64
2023/01/08 10:00:14;;;;;;;6.07;5.23;;;;;;;3.24;100.00;95760.78;4953697;28;104220;-64
2023/01/08 10:02:43;;;;;;;8.23;6.07;;;;;;;3.43;100.00;95765.78;4971690;28;101753;-64
2023/01/08 10:05:15;;;;;;;6.93;6.00;;;;;;;3.76;100.00;95752.25;4953812;28;105401;-64
2023/01/08 10:07:43;;;;;;;8.50;5.67;;;;;;;3.98;100.00;95753.34;4953723;28;103968;-64
2023/01/08 10:10:18;;;;;;;6.53;5.30;;;;;;;4.16;100.00;95735.63;4953474;28;102024;-64
2023/01/08 10:12:46;;;;;;;4.93;4.43;;;;;;;4.35;100.00;95734.53;4955945;28;105212;-64
2023/01/08 10:15:16;;;;;;;7.57;5.73;;;;;;;4.26;100.00;95729.81;4954047;28;101758;-64
2023/01/08 10:17:49;;;;;;;7.03;6.13;;;;;;;4.21;100.00;95721.81;4954101;28;105503;-64
2023/01/08 10:20:19;;;;;;;7.17;6.10;;;;;;;4.36;100.00;95715.06;4953833;28;104245;-64
2023/01/08 10:22:48;;;;;;;11.37;8.17;;;;;;;4.24;100.00;95700.28;4954095;28;102014;-64
2023/01/08 10:25:19;;;;;;;35.73;25.37;;;;;;;4.28;100.00;95699.63;4954157;28;105692;-64
2023/01/08 10:27:49;;;;;;;17.00;13.63;;;;;;;4.40;100.00;95699.59;4952751;28;105496;-64
2023/01/08 10:30:19;;;;;;;9.30;7.83;;;;;;;4.47;100.00;95700.31;4953326;28;101814;-64
2023/01/08 10:32:52;;;;;;;7.47;6.03;;;;;;;4.35;100.00;95704.75;4953496;28;105458;-64
2023/01/08 10:35:23;;;;;;;6.50;5.90;;;;;;;4.48;100.00;95696.66;4956839;28;105752;-64
2023/01/08 10:37:50;;;;;;;6.50;5.47;;;;;;;4.76;100.00;95699.38;4954396;28;105537;-64
2023/01/08 10:40:28;;;;;;;6.80;6.03;;;;;;;4.62;100.00;95695.38;4953244;28;105389;-64
2023/01/08 10:42:57;;;;;;;8.60;6.10;;;;;;;4.48;100.00;95694.81;4953998;28;101739;-64
2023/01/08 10:45:26;;;;;;;7.27;6.53;;;;;;;4.49;100.00;95704.31;4954129;28;103832;-64
2023/01/08 10:47:59;;;;;;;6.73;6.13;;;;;;;4.48;100.00;95692.16;4953210;28;105588;-64
2023/01/08 10:50:29;;;;;;;8.40;7.20;;;;;;;4.56;100.00;95705.00;4953988;28;101910;-64
2023/01/08 10:53:00;;;;;;;6.67;5.70;;;;;;;4.64;100.00;95703.84;4953173;28;105514;-64
2023/01/08 10:55:30;;;;;;;7.70;6.10;;;;;;;4.87;100.00;95694.09;4953276;28;105384;-64
2023/01/08 10:57:59;;;;;;;7.73;5.47;;;;;;;4.92;100.00;95693.41;4974917;28;102106;-71
2023/01/08 11:00:28;;;;;;;6.57;5.70;;;;;;;5.17;100.00;95691.25;4970697;28;102713;-66
2023/01/08 11:03:01;;;;;;;7.07;6.00;;;;;;;5.40;100.00;95691.22;4970999;28;102179;-66
2023/01/08 11:05:34;;;;;;;5.87;5.27;;;;;;;5.47;100.00;95691.88;4954032;28;105630;-64
2023/01/08 11:08:05;;;;;;;6.10;5.50;;;;;;;5.66;100.00;95683.53;4952997;28;105594;-64
2023/01/08 11:10:34;;;;;;;6.00;5.40;;;;;;;5.98;100.00;95674.09;4971461;28;102053;-64
2023/01/08 11:13:04;;;;;;;6.20;5.33;;;;;;;6.26;100.00;95670.56;4953464;28;105528;-64
2023/01/08 11:15:34;;;;;;;8.33;5.90;;;;;;;6.36;100.00;95676.00;4952654;28;105044;-64
2023/01/08 11:18:19;;;;;;;5.97;5.37;;;;;;;6.53;100.00;95660.94;4956995;28;101851;-65
2023/01/08 11:20:48;;;;;;;5.23;4.50;;;;;;;6.40;100.00;95656.00;4952719;28;105949;-65
2023/01/08 11:23:18;;;;;;;6.43;4.80;;;;;;;6.52;100.00;95651.44;4953047;28;102037;-65